createdAt,value
2019-03-16T00:01:13.406Z,1.67
2019-03-16T00:03:42.933Z,1.60
2019-03-16T00:06:12.599Z,1.60
2019-03-16T00:08:43.820Z,1.73
2019-03-16T00:11:13.379Z,1.83
2019-03-16T00:13:42.953Z,1.27
2019-03-16T00:16:14.133Z,1.97
2019-03-16T00:18:43.693Z,1.45
2019-03-16T00:21:13.243Z,1.83
2019-03-16T00:23:42.827Z,2.00
2019-03-16T00:26:12.419Z,1.42
2019-03-16T00:28:41.966Z,1.70
2019-03-16T00:31:11.568Z,1.80
2019-03-16T00:33:41.113Z,1.63
2019-03-16T00:36:11.137Z,1.93
2019-03-16T00:38:59.724Z,2.20
2019-03-16T00:41:34.564Z,2.00
2019-03-16T00:44:04.248Z,1.60
2019-03-16T00:46:33.843Z,2.40
2019-03-16T00:49:03.530Z,1.87
2019-03-16T00:51:33.056Z,1.80
2019-03-16T00:54:02.602Z,1.77
2019-03-16T00:56:32.267Z,1.70
2019-03-16T00:59:01.795Z,1.20
2019-03-16T01:01:31.316Z,1.63
2019-03-16T01:04:00.849Z,1.77
2019-03-16T01:06:49.720Z,2.07
2019-03-16T01:09:19.339Z,1.30
2019-03-16T01:11:48.906Z,1.47
2019-03-16T01:14:18.430Z,2.10
2019-03-16T01:16:49.576Z,1.77
2019-03-16T01:19:19.292Z,2.30
2019-03-16T01:21:48.789Z,1.47
2019-03-16T01:24:18.330Z,1.60
2019-03-16T01:26:47.843Z,2.27
2019-03-16T01:29:17.391Z,2.13
2019-03-16T01:31:46.959Z,1.55
2019-03-16T01:34:16.501Z,3.00
2019-03-16T01:36:46.067Z,2.02
2019-03-16T01:39:15.603Z,1.83
2019-03-16T01:41:45.258Z,1.42
2019-03-16T01:44:14.881Z,1.60
2019-03-16T01:46:44.387Z,1.00
2019-03-16T01:49:13.929Z,1.73
2019-03-16T01:51:43.457Z,1.70
2019-03-16T01:54:46.977Z,2.03
2019-03-16T01:57:22.466Z,1.53
2019-03-16T01:59:51.982Z,1.30
2019-03-16T02:02:21.503Z,1.83
2019-03-16T02:04:51.098Z,1.83
2019-03-16T02:10:14.619Z,2.00
2019-03-16T02:12:44.242Z,1.60
2019-03-16T02:15:13.974Z,1.83
2019-03-16T02:17:43.478Z,3.90
2019-03-16T02:20:13.061Z,1.57
2019-03-16T02:22:44.209Z,1.52
2019-03-16T02:25:13.807Z,1.40
2019-03-16T02:27:43.370Z,2.42
2019-03-16T02:30:13.210Z,1.40
2019-03-16T02:32:42.783Z,2.00
2019-03-16T02:35:12.406Z,1.77
2019-03-16T02:37:41.961Z,1.97
2019-03-16T02:40:11.536Z,1.35
2019-03-16T02:42:41.071Z,1.47
2019-03-16T02:45:11.644Z,2.03
2019-03-16T02:47:41.199Z,1.43
2019-03-16T02:50:10.861Z,2.17
2019-03-16T02:52:40.442Z,2.03
2019-03-16T02:55:10.081Z,1.95
2019-03-16T02:57:39.620Z,1.47
2019-03-16T03:05:41.613Z,1.60
2019-03-16T03:08:11.212Z,1.80
2019-03-16T03:10:40.757Z,1.30
2019-03-16T03:13:13.513Z,1.57
2019-03-16T03:18:50.030Z,2.20
2019-03-16T03:21:39.557Z,2.45
2019-03-16T03:24:09.112Z,1.70
2019-03-16T03:26:38.634Z,1.72
2019-03-16T03:29:08.229Z,1.63
2019-03-16T03:31:37.796Z,1.40
2019-03-16T03:34:07.398Z,1.37
2019-03-16T03:36:36.930Z,1.77
2019-03-16T03:39:07.510Z,1.17
2019-03-16T03:41:37.096Z,1.50
2019-03-16T03:44:06.631Z,1.47
2019-03-16T03:46:36.224Z,2.10
2019-03-16T03:49:05.775Z,2.35
2019-03-16T03:51:35.404Z,2.08
2019-03-16T03:54:04.943Z,1.40
2019-03-16T03:56:34.434Z,1.63
2019-03-16T03:59:04.658Z,1.22
2019-03-16T04:01:34.205Z,1.60
2019-03-16T04:04:14.967Z,1.85
2019-03-16T04:06:40.952Z,2.60
2019-03-16T04:09:10.528Z,1.30
2019-03-16T04:11:59.290Z,1.77
2019-03-16T04:14:28.829Z,1.55
2019-03-16T04:16:58.405Z,1.90
2019-03-16T04:19:27.974Z,1.92
2019-03-16T04:21:57.579Z,1.43
2019-03-16T04:24:27.217Z,1.45
2019-03-16T04:26:57.152Z,2.85
2019-03-16T04:29:27.084Z,2.58
2019-03-16T04:31:57.140Z,1.47
2019-03-16T04:34:29.453Z,1.47
2019-03-16T04:37:04.275Z,1.43
2019-03-16T04:39:33.869Z,1.57
2019-03-16T04:44:54.675Z,2.33
2019-03-16T04:47:24.172Z,1.57
2019-03-16T04:49:53.710Z,1.73
2019-03-16T04:52:23.233Z,1.90
2019-03-16T04:54:52.768Z,1.20
2019-03-16T04:57:22.320Z,2.20
2019-03-16T04:59:51.901Z,2.30
2019-03-16T05:02:21.454Z,1.87
2019-03-16T05:04:51.004Z,1.80
2019-03-16T05:07:20.518Z,1.50
2019-03-16T05:09:50.124Z,1.57
2019-03-16T05:12:19.657Z,1.73
2019-03-16T05:14:49.265Z,1.93
2019-03-16T05:17:18.795Z,1.47
2019-03-16T05:19:48.363Z,1.80
2019-03-16T05:25:00.377Z,1.62
2019-03-16T05:27:35.392Z,1.60
2019-03-16T05:30:05.332Z,1.93
2019-03-16T05:32:34.827Z,1.13
2019-03-16T05:35:04.406Z,4.13
2019-03-16T05:37:33.932Z,2.30
2019-03-16T05:40:03.586Z,1.70
2019-03-16T05:42:52.424Z,2.58
2019-03-16T05:45:21.969Z,2.50
2019-03-16T05:47:51.499Z,2.03
2019-03-16T05:50:21.030Z,1.73
2019-03-16T05:52:50.606Z,1.93
2019-03-16T05:55:20.138Z,2.22
2019-03-16T05:57:49.685Z,1.30
2019-03-16T06:00:20.813Z,1.50
2019-03-16T06:03:09.476Z,1.53
2019-03-16T06:05:39.031Z,1.70
2019-03-16T06:08:08.620Z,1.70
2019-03-16T06:10:38.166Z,1.70
2019-03-16T06:13:07.679Z,1.50
2019-03-16T06:15:37.206Z,1.60
2019-03-16T06:18:06.768Z,1.40
2019-03-16T06:20:36.363Z,1.63
2019-03-16T06:23:05.919Z,1.50
2019-03-16T06:25:35.487Z,2.47
2019-03-16T06:30:46.642Z,2.30
2019-03-16T06:33:16.181Z,2.40
2019-03-16T06:35:45.783Z,2.30
2019-03-16T06:38:15.293Z,1.40
2019-03-16T06:40:44.896Z,2.67
2019-03-16T06:43:14.536Z,1.37
2019-03-16T06:45:44.102Z,1.43
2019-03-16T06:48:13.658Z,1.60
2019-03-16T06:50:43.220Z,1.47
2019-03-16T06:53:12.758Z,1.77
2019-03-16T06:55:42.312Z,1.33
2019-03-16T06:58:11.851Z,1.27
2019-03-16T07:00:41.379Z,1.20
2019-03-16T07:03:10.898Z,1.60
2019-03-16T07:05:40.432Z,1.10
2019-03-16T07:08:10.025Z,1.07
2019-03-16T07:10:39.536Z,1.30
2019-03-16T07:13:09.072Z,1.13
2019-03-16T07:15:38.574Z,1.00
2019-03-16T07:18:08.130Z,1.10
2019-03-16T07:20:37.671Z,1.00
2019-03-16T07:23:07.288Z,1.13
2019-03-16T07:25:36.791Z,0.90
2019-03-16T07:28:06.431Z,1.45
2019-03-16T07:30:37.380Z,1.50
2019-03-16T07:33:12.699Z,1.87
2019-03-16T07:35:42.244Z,1.60
2019-03-16T07:40:53.665Z,2.10
2019-03-16T07:43:23.240Z,1.67
2019-03-16T07:45:52.774Z,1.70
2019-03-16T07:48:41.560Z,2.03
2019-03-16T07:51:11.082Z,2.55
2019-03-16T07:53:40.700Z,1.90
2019-03-16T07:56:10.225Z,2.20
2019-03-16T07:58:39.777Z,3.13
2019-03-16T08:01:09.335Z,2.30
2019-03-16T08:03:38.946Z,1.72
2019-03-16T08:06:08.470Z,2.90
2019-03-16T08:08:38.025Z,4.00
2019-03-16T08:11:07.577Z,2.00
2019-03-16T08:13:37.172Z,1.92
2019-03-16T08:16:06.703Z,1.77
2019-03-16T08:18:36.277Z,1.70
2019-03-16T08:21:05.878Z,1.60
2019-03-16T08:23:35.433Z,1.03
2019-03-16T08:26:05.135Z,1.60
2019-03-16T08:28:34.687Z,1.60
2019-03-16T08:31:04.639Z,1.53
2019-03-16T08:33:34.179Z,1.80
2019-03-16T08:36:04.380Z,1.70
2019-03-16T08:38:33.980Z,2.03
2019-03-16T08:41:03.536Z,2.57
2019-03-16T08:43:34.067Z,1.70
2019-03-16T08:46:03.556Z,2.22
2019-03-16T08:48:33.091Z,1.77
2019-03-16T08:51:03.026Z,1.87
2019-03-16T08:53:32.581Z,1.13
2019-03-16T08:56:02.747Z,2.25
2019-03-16T08:58:32.309Z,3.08
2019-03-16T09:01:02.972Z,1.57
2019-03-16T09:03:43.206Z,1.10
2019-03-16T09:06:04.727Z,1.47
2019-03-16T09:08:34.267Z,2.35
2019-03-16T09:11:03.783Z,1.67
2019-03-16T09:13:33.367Z,1.80
2019-03-16T09:16:22.197Z,1.80
2019-03-16T09:18:51.718Z,2.00
2019-03-16T09:21:21.267Z,1.65
2019-03-16T09:23:50.810Z,1.70
2019-03-16T09:26:20.396Z,3.00
2019-03-16T09:28:59.602Z,1.80
2019-03-16T09:31:40.333Z,2.17
2019-03-16T09:34:09.920Z,2.17
2019-03-16T09:36:39.443Z,1.67
2019-03-16T09:39:09.193Z,1.70
2019-03-16T09:41:38.760Z,2.30
2019-03-16T09:44:08.289Z,2.00
2019-03-16T09:46:37.829Z,1.93
2019-03-16T09:49:07.410Z,1.80
2019-03-16T09:51:36.990Z,1.97
2019-03-16T09:54:06.767Z,1.80
2019-03-16T09:56:36.284Z,1.67
2019-03-16T09:59:05.863Z,2.77
2019-03-16T10:01:35.491Z,1.60
2019-03-16T10:04:05.085Z,1.90
2019-03-16T10:06:34.616Z,5.13
2019-03-16T10:09:06.300Z,1.77
2019-03-16T10:11:35.824Z,1.60
2019-03-16T10:14:05.572Z,1.60
2019-03-16T10:16:35.107Z,1.60
2019-03-16T10:19:04.835Z,1.85
2019-03-16T10:21:53.687Z,2.47
2019-03-16T10:24:23.251Z,1.90
2019-03-16T10:26:52.815Z,1.60
2019-03-16T10:29:22.404Z,1.80
2019-03-16T10:31:51.965Z,1.30
2019-03-16T10:34:21.469Z,1.60
2019-03-16T10:36:51.038Z,1.30
2019-03-16T10:39:39.618Z,1.10
2019-03-16T10:42:09.125Z,1.70
2019-03-16T10:44:40.369Z,1.20
2019-03-16T10:47:09.882Z,1.20
2019-03-16T10:49:39.453Z,1.20
2019-03-16T10:52:08.972Z,1.10
2019-03-16T10:54:38.609Z,1.20
2019-03-16T10:57:08.121Z,1.43
2019-03-16T10:59:37.657Z,2.63
2019-03-16T11:02:07.184Z,1.87
2019-03-16T11:04:36.734Z,1.60
2019-03-16T11:07:06.316Z,1.50
2019-03-16T11:09:35.932Z,2.53
2019-03-16T11:12:05.522Z,1.63
2019-03-16T11:14:35.073Z,2.35
2019-03-16T11:17:04.680Z,1.57
2019-03-16T11:19:34.270Z,2.27
2019-03-16T11:22:03.898Z,2.70
2019-03-16T11:24:33.433Z,1.87
2019-03-16T11:27:02.965Z,1.70
2019-03-16T11:29:32.628Z,2.10
2019-03-16T11:32:21.419Z,1.70
2019-03-16T11:34:50.981Z,2.57
2019-03-16T11:37:20.518Z,2.53
2019-03-16T11:39:50.051Z,2.37
2019-03-16T11:45:08.923Z,2.20
2019-03-16T11:47:38.527Z,2.60
2019-03-16T11:50:08.551Z,2.80
2019-03-16T11:52:38.135Z,2.33
2019-03-16T11:55:07.688Z,2.20
2019-03-16T11:57:37.246Z,2.60
2019-03-16T12:00:27.594Z,2.30
2019-03-16T12:02:57.149Z,2.43
2019-03-16T12:05:26.696Z,2.00
2019-03-16T12:07:56.256Z,2.93
2019-03-16T12:10:25.778Z,2.97
2019-03-16T12:12:55.299Z,2.70
2019-03-16T12:15:24.821Z,2.30
2019-03-16T12:17:54.339Z,2.60
2019-03-16T12:20:23.948Z,2.50
2019-03-16T12:22:53.466Z,2.80
2019-03-16T12:25:23.047Z,2.47
2019-03-16T12:27:52.627Z,2.93
2019-03-16T12:30:22.719Z,3.23
2019-03-16T12:33:11.544Z,3.40
2019-03-16T12:35:41.091Z,3.50
2019-03-16T12:38:10.692Z,2.85
2019-03-16T12:40:40.161Z,3.67
2019-03-16T12:43:09.671Z,3.83
2019-03-16T12:45:39.234Z,3.50
2019-03-16T12:48:08.738Z,4.23
2019-03-16T12:50:38.413Z,3.70
2019-03-16T12:53:07.946Z,4.12
2019-03-16T12:55:37.530Z,4.00
2019-03-16T12:58:08.771Z,4.40
2019-03-16T13:00:38.296Z,4.20
2019-03-16T13:03:07.808Z,4.33
2019-03-16T13:05:37.370Z,4.73
2019-03-16T13:08:06.930Z,5.43
2019-03-16T13:10:37.373Z,5.10
2019-03-16T13:13:06.897Z,5.27
2019-03-16T13:18:30.976Z,4.13
2019-03-16T13:21:00.558Z,5.00
2019-03-16T13:23:30.087Z,5.87
2019-03-16T13:25:59.819Z,6.60
2019-03-16T13:28:29.402Z,5.43
2019-03-16T13:30:58.955Z,6.57
2019-03-16T13:33:28.784Z,5.53
2019-03-16T13:35:58.772Z,5.60
2019-03-16T13:38:28.876Z,6.47
2019-03-16T13:40:58.857Z,5.90
2019-03-16T13:43:28.861Z,4.60
2019-03-16T13:45:59.250Z,5.78
2019-03-16T13:48:28.980Z,4.80
2019-03-16T13:50:58.937Z,4.25
2019-03-16T13:53:28.824Z,4.80
2019-03-16T13:55:59.042Z,5.50
2019-03-16T13:58:28.868Z,5.40
2019-03-16T14:00:58.971Z,5.22
2019-03-16T14:03:28.913Z,5.17
2019-03-16T14:05:58.908Z,5.03
2019-03-16T14:08:28.927Z,5.35
2019-03-16T14:10:58.970Z,3.90
2019-03-16T14:13:28.949Z,5.30
2019-03-16T14:16:18.482Z,5.05
2019-03-16T14:18:48.106Z,4.70
2019-03-16T14:21:17.633Z,5.73
2019-03-16T14:23:47.260Z,5.97
2019-03-16T14:26:16.804Z,6.85
2019-03-16T14:28:46.386Z,5.55
2019-03-16T14:31:15.935Z,6.10
2019-03-16T14:33:45.494Z,6.90
2019-03-16T14:36:15.402Z,7.50
2019-03-16T14:38:45.108Z,7.17
2019-03-16T14:41:14.745Z,7.37
2019-03-16T14:43:56.029Z,7.60
2019-03-16T14:46:25.559Z,6.90
2019-03-16T14:48:55.129Z,6.40
2019-03-16T14:51:24.977Z,6.50
2019-03-16T14:53:54.470Z,8.13
2019-03-16T14:56:23.989Z,7.60
2019-03-16T14:58:53.496Z,7.47
2019-03-16T15:01:23.057Z,6.70
2019-03-16T15:03:52.560Z,7.40
2019-03-16T15:06:22.132Z,5.97
2019-03-16T15:08:51.629Z,5.70
2019-03-16T15:11:40.504Z,6.22
2019-03-16T15:14:29.331Z,5.45
2019-03-16T15:16:59.438Z,6.78
2019-03-16T15:19:29.313Z,6.57
2019-03-16T15:21:59.558Z,5.45
2019-03-16T15:24:29.355Z,5.67
2019-03-16T15:26:59.334Z,4.90
2019-03-16T15:32:19.014Z,5.03
2019-03-16T15:34:48.580Z,5.47
2019-03-16T15:37:18.158Z,4.97
2019-03-16T15:39:47.693Z,5.80
2019-03-16T15:42:17.294Z,4.90
2019-03-16T15:45:08.183Z,6.12
2019-03-16T15:47:37.747Z,5.15
2019-03-16T15:50:07.421Z,6.40
2019-03-16T15:52:37.666Z,4.60
2019-03-16T15:55:27.325Z,6.40
2019-03-16T15:58:07.311Z,6.53
2019-03-16T16:00:47.310Z,6.10
2019-03-16T16:03:16.975Z,6.20
2019-03-16T16:05:46.600Z,5.67
2019-03-16T16:08:19.224Z,4.92
2019-03-16T16:11:06.548Z,6.00
2019-03-16T16:13:36.107Z,6.00
2019-03-16T16:16:05.641Z,5.53
2019-03-16T16:18:35.212Z,6.67
2019-03-16T16:21:24.102Z,5.43
2019-03-16T16:23:53.636Z,6.00
2019-03-16T16:26:23.193Z,5.20
2019-03-16T16:28:52.831Z,4.60
2019-03-16T16:31:22.389Z,4.40
2019-03-16T16:33:52.155Z,5.20
2019-03-16T16:36:22.214Z,3.83
2019-03-16T16:38:51.747Z,5.20
2019-03-16T16:41:40.351Z,4.50
2019-03-16T16:44:29.173Z,4.73
2019-03-16T16:46:58.723Z,4.20
2019-03-16T16:49:28.437Z,4.40
2019-03-16T16:51:58.081Z,4.30
2019-03-16T16:54:27.698Z,5.03
2019-03-16T16:59:45.809Z,4.80
2019-03-16T17:02:16.353Z,5.20
2019-03-16T17:04:45.888Z,5.90
2019-03-16T17:07:15.393Z,6.87
2019-03-16T17:09:45.040Z,3.73
2019-03-16T17:12:14.664Z,4.00
2019-03-16T17:14:44.244Z,4.08
2019-03-16T17:17:13.800Z,4.28
2019-03-16T17:19:43.453Z,4.00
2019-03-16T17:22:13.034Z,3.10
2019-03-16T17:24:42.682Z,3.03
2019-03-16T17:27:12.267Z,3.30
2019-03-16T17:29:41.834Z,3.40
2019-03-16T17:32:11.403Z,3.58
2019-03-16T17:34:46.611Z,3.10
2019-03-16T17:37:16.163Z,3.47
2019-03-16T17:39:45.809Z,3.00
2019-03-16T17:42:15.317Z,3.10
2019-03-16T17:44:46.388Z,3.37
2019-03-16T17:47:16.102Z,3.50
2019-03-16T17:49:45.699Z,3.35
2019-03-16T17:52:15.269Z,3.80
2019-03-16T17:55:03.836Z,3.87
2019-03-16T17:57:33.340Z,3.47
2019-03-16T18:00:02.939Z,3.47
2019-03-16T18:02:32.476Z,4.33
2019-03-16T18:05:02.031Z,3.77
2019-03-16T18:07:31.585Z,3.25
2019-03-16T18:12:42.914Z,3.53
2019-03-16T18:15:12.627Z,3.15
2019-03-16T18:17:42.139Z,3.42
2019-03-16T18:20:12.121Z,4.67
2019-03-16T18:22:43.291Z,5.15
2019-03-16T18:25:12.846Z,6.50
2019-03-16T18:27:42.349Z,5.20
2019-03-16T18:30:13.924Z,4.10
2019-03-16T18:32:43.531Z,4.90
2019-03-16T18:35:13.148Z,4.90
2019-03-16T18:37:42.720Z,4.70
2019-03-16T18:40:12.464Z,4.20
2019-03-16T18:42:43.653Z,4.70
2019-03-16T18:45:14.396Z,3.77
2019-03-16T18:47:43.966Z,3.43
2019-03-16T18:50:13.662Z,4.03
2019-03-16T18:52:43.256Z,3.53
2019-03-16T18:55:12.889Z,3.87
2019-03-16T18:58:01.531Z,3.57
2019-03-16T19:00:31.076Z,4.63
2019-03-16T19:03:00.564Z,3.50
2019-03-16T19:05:30.129Z,3.23
2019-03-16T19:11:13.562Z,2.33
2019-03-16T19:13:43.102Z,2.57
2019-03-16T19:16:12.829Z,3.07
2019-03-16T19:18:42.364Z,2.45
2019-03-16T19:21:11.939Z,2.10
2019-03-16T19:23:41.494Z,2.10
2019-03-16T19:26:11.101Z,2.42
2019-03-16T19:28:40.622Z,2.33
2019-03-16T19:31:10.231Z,2.50
2019-03-16T19:33:39.768Z,2.40
2019-03-16T19:36:09.332Z,2.07
2019-03-16T19:38:38.878Z,2.83
2019-03-16T19:41:08.438Z,2.40
2019-03-16T19:43:38.006Z,2.93
2019-03-16T19:46:07.582Z,2.33
2019-03-16T19:48:37.142Z,2.03
2019-03-16T19:51:06.638Z,2.60
2019-03-16T19:53:37.767Z,2.60
2019-03-16T19:56:08.869Z,2.20
2019-03-16T19:58:44.264Z,2.83
2019-03-16T20:01:13.884Z,2.67
2019-03-16T20:03:43.410Z,2.70
2019-03-16T20:06:24.708Z,2.90
2019-03-16T20:12:04.358Z,3.43
2019-03-16T20:14:33.923Z,2.70
2019-03-16T20:17:15.313Z,2.60
2019-03-16T20:19:45.862Z,3.27
2019-03-16T20:22:15.452Z,3.37
2019-03-16T20:24:44.997Z,3.50
2019-03-16T20:27:14.569Z,2.90
2019-03-16T20:29:44.103Z,2.45
2019-03-16T20:32:32.916Z,2.43
2019-03-16T20:35:02.486Z,3.00
2019-03-16T20:37:32.172Z,2.40
2019-03-16T20:40:01.652Z,2.27
2019-03-16T20:42:52.157Z,3.27
2019-03-16T20:45:21.954Z,2.50
2019-03-16T20:47:58.315Z,3.03
2019-03-16T20:50:27.837Z,2.73
2019-03-16T20:52:57.396Z,2.27
2019-03-16T20:55:26.952Z,2.10
2019-03-16T20:57:56.533Z,2.23
2019-03-16T21:00:26.094Z,2.20
2019-03-16T21:02:55.660Z,2.60
2019-03-16T21:05:25.202Z,1.97
2019-03-16T21:07:54.782Z,2.50
2019-03-16T21:10:24.310Z,2.03
2019-03-16T21:12:53.876Z,2.20
2019-03-16T21:15:23.448Z,2.00
2019-03-16T21:17:55.722Z,2.50
2019-03-16T21:20:29.929Z,2.20
2019-03-16T21:22:59.492Z,3.20
2019-03-16T21:25:29.049Z,2.63
2019-03-16T21:27:58.621Z,3.50
2019-03-16T21:30:40.126Z,2.17
2019-03-16T21:33:09.655Z,2.53
2019-03-16T21:35:39.154Z,2.93
2019-03-16T21:38:08.776Z,1.90
2019-03-16T21:40:38.391Z,2.30
2019-03-16T21:43:07.951Z,2.37
2019-03-16T21:45:37.540Z,2.70
2019-03-16T21:48:07.111Z,2.35
2019-03-16T21:50:37.011Z,2.58
2019-03-16T21:53:07.087Z,2.83
2019-03-16T21:55:37.082Z,2.40
2019-03-16T21:58:07.120Z,2.85
2019-03-16T22:00:37.054Z,2.85
2019-03-16T22:03:07.234Z,3.25
2019-03-16T22:05:37.130Z,3.20
2019-03-16T22:08:07.132Z,2.80
2019-03-16T22:10:37.252Z,3.17
2019-03-16T22:13:07.497Z,3.27
2019-03-16T22:15:37.160Z,2.70
2019-03-16T22:18:07.258Z,2.60
2019-03-16T22:20:37.452Z,2.50
2019-03-16T22:23:07.595Z,4.70
2019-03-16T22:25:37.664Z,3.17
2019-03-16T22:28:10.192Z,2.37
2019-03-16T22:30:48.195Z,2.33
2019-03-16T22:33:17.714Z,2.40
2019-03-16T22:35:47.247Z,2.80
2019-03-16T22:38:16.814Z,2.83
2019-03-16T22:40:46.360Z,2.90
2019-03-16T22:43:15.949Z,2.20
2019-03-16T22:45:45.476Z,2.27
2019-03-16T22:48:15.121Z,3.43
2019-03-16T22:50:44.652Z,2.60
2019-03-16T22:53:14.231Z,2.70
2019-03-16T22:55:43.800Z,2.42
2019-03-16T22:58:13.414Z,2.47
2019-03-16T23:01:02.076Z,2.87
2019-03-16T23:03:31.686Z,2.80
2019-03-16T23:06:01.222Z,2.90
2019-03-16T23:08:30.740Z,2.47
2019-03-16T23:11:00.270Z,2.83
2019-03-16T23:13:48.971Z,2.77
2019-03-16T23:16:18.994Z,2.40
2019-03-16T23:19:08.834Z,2.20
2019-03-16T23:21:38.376Z,2.13
2019-03-16T23:24:08.233Z,3.95
2019-03-16T23:26:39.012Z,2.42
2019-03-16T23:29:15.062Z,2.47
2019-03-16T23:31:44.577Z,2.90
2019-03-16T23:34:19.426Z,3.00
2019-03-16T23:36:52.162Z,2.87
2019-03-16T23:39:21.719Z,2.67
2019-03-16T23:41:51.243Z,2.43
2019-03-16T23:44:20.901Z,2.63
2019-03-16T23:46:50.414Z,2.92
2019-03-16T23:49:19.972Z,2.33
2019-03-16T23:51:49.525Z,2.90
2019-03-16T23:54:19.110Z,2.37
2019-03-16T23:56:48.632Z,2.27
2019-03-16T23:59:18.255Z,1.90
